createdAt,value
2023-03-21T00:00:43.041Z,3.47
2023-03-21T00:03:09.968Z,4.22
2023-03-21T00:05:42.059Z,3.72
2023-03-21T00:08:09.107Z,3.70
2023-03-21T00:10:41.679Z,3.50
2023-03-21T00:13:12.995Z,3.70
2023-03-21T00:16:01.950Z,3.38
2023-03-21T00:18:31.553Z,4.10
2023-03-21T00:21:35.926Z,4.00
2023-03-21T00:23:52.275Z,4.47
2023-03-21T00:26:18.994Z,3.92
2023-03-21T00:28:45.714Z,3.53
2023-03-21T00:31:12.250Z,3.50
2023-03-21T00:33:39.321Z,3.58
2023-03-21T00:36:07.350Z,3.65
2023-03-21T00:38:34.738Z,3.50
2023-03-21T00:41:16.448Z,3.20
2023-03-21T00:43:47.759Z,3.70
2023-03-21T00:46:14.470Z,4.13
2023-03-21T00:48:41.311Z,3.92
2023-03-21T00:51:26.628Z,3.30
2023-03-21T00:53:55.747Z,3.55
2023-03-21T00:56:22.887Z,3.08
2023-03-21T00:58:49.551Z,3.50
2023-03-21T01:01:16.187Z,3.78
2023-03-21T01:03:42.866Z,3.22
2023-03-21T01:06:13.207Z,3.33
2023-03-21T01:08:51.656Z,3.17
2023-03-21T01:11:20.815Z,3.40
2023-03-21T01:13:54.606Z,3.45
2023-03-21T01:16:24.916Z,3.45
2023-03-21T01:18:51.575Z,3.40
2023-03-21T01:21:18.346Z,3.28
2023-03-21T01:23:45.392Z,3.78
2023-03-21T01:26:13.179Z,3.58
2023-03-21T01:28:41.874Z,3.60
2023-03-21T01:31:09.765Z,2.45
2023-03-21T01:33:36.580Z,3.90
2023-03-21T01:36:12.626Z,3.63
2023-03-21T01:38:39.467Z,3.50
2023-03-21T01:41:17.104Z,3.65
2023-03-21T01:46:25.342Z,3.72
2023-03-21T01:49:00.123Z,3.60
2023-03-21T01:51:28.088Z,4.35
2023-03-21T01:53:56.046Z,4.30
2023-03-21T01:56:33.314Z,4.95
2023-03-21T01:59:17.337Z,4.97
2023-03-21T02:01:45.309Z,4.97
2023-03-21T02:04:12.094Z,5.22
2023-03-21T02:06:48.232Z,4.80
2023-03-21T02:09:21.283Z,4.65
2023-03-21T02:11:48.335Z,4.50
2023-03-21T02:14:26.667Z,4.88
2023-03-21T02:17:06.689Z,5.18
2023-03-21T02:20:11.777Z,4.47
2023-03-21T02:23:04.762Z,4.80
2023-03-21T02:26:02.909Z,4.95
2023-03-21T02:28:38.016Z,5.00
2023-03-21T02:31:35.817Z,5.00
2023-03-21T02:34:31.991Z,4.88
2023-03-21T02:37:36.808Z,4.47
2023-03-21T02:40:25.066Z,4.55
2023-03-21T02:43:14.160Z,4.57
2023-03-21T02:45:59.334Z,4.70
2023-03-21T02:48:49.939Z,4.70
2023-03-21T02:51:21.453Z,5.05
2023-03-21T02:54:23.705Z,4.50
2023-03-21T02:56:45.957Z,4.80
2023-03-21T02:59:14.320Z,4.57
2023-03-21T03:01:40.963Z,4.73
2023-03-21T03:04:27.217Z,4.22
2023-03-21T03:07:18.207Z,4.80
2023-03-21T03:09:57.269Z,5.45
2023-03-21T03:12:53.698Z,4.47
2023-03-21T03:15:54.563Z,4.57
2023-03-21T03:18:37.844Z,4.70
2023-03-21T03:21:19.614Z,4.47
2023-03-21T03:24:01.563Z,4.68
2023-03-21T03:26:43.011Z,5.00
2023-03-21T03:29:17.117Z,4.75
2023-03-21T03:32:01.279Z,4.60
2023-03-21T03:34:39.354Z,5.13
2023-03-21T03:37:10.697Z,5.22
2023-03-21T03:39:43.745Z,5.05
2023-03-21T03:42:30.224Z,5.20
2023-03-21T03:44:57.549Z,5.05
2023-03-21T03:47:56.750Z,5.57
2023-03-21T03:50:30.920Z,5.22
2023-03-21T03:53:09.769Z,4.82
2023-03-21T03:55:43.777Z,4.88
2023-03-21T03:58:21.153Z,5.05
2023-03-21T04:03:16.462Z,4.60
2023-03-21T04:05:46.232Z,5.25
2023-03-21T04:08:14.216Z,5.10
2023-03-21T04:10:41.896Z,5.53
2023-03-21T04:13:08.807Z,5.50
2023-03-21T04:15:35.647Z,4.88
2023-03-21T04:18:02.356Z,5.05
2023-03-21T04:20:36.550Z,5.05
2023-03-21T04:23:04.356Z,5.10
2023-03-21T04:25:34.790Z,4.32
2023-03-21T04:28:01.909Z,5.32
2023-03-21T04:30:28.922Z,4.90
2023-03-21T04:32:56.946Z,4.57
2023-03-21T04:35:24.869Z,5.32
2023-03-21T04:37:51.681Z,4.68
2023-03-21T04:40:18.677Z,5.32
2023-03-21T04:42:47.446Z,5.85
2023-03-21T04:45:15.807Z,4.78
2023-03-21T04:47:42.753Z,4.85
2023-03-21T04:50:11.053Z,4.85
2023-03-21T04:52:37.616Z,5.30
2023-03-21T04:55:04.655Z,5.10
2023-03-21T04:57:31.338Z,5.78
2023-03-21T04:59:57.875Z,5.35
2023-03-21T05:02:24.465Z,5.28
2023-03-21T05:04:51.102Z,5.22
2023-03-21T05:07:17.655Z,5.82
2023-03-21T05:09:44.239Z,5.47
2023-03-21T05:12:10.799Z,5.45
2023-03-21T05:14:37.358Z,5.30
2023-03-21T05:17:05.125Z,5.50
2023-03-21T05:19:35.830Z,5.70
2023-03-21T05:22:05.024Z,5.53
2023-03-21T05:24:32.802Z,5.93
2023-03-21T05:27:03.623Z,5.82
2023-03-21T05:29:31.753Z,6.10
2023-03-21T05:31:59.522Z,5.80
2023-03-21T05:34:27.361Z,5.95
2023-03-21T05:36:54.526Z,5.78
2023-03-21T05:39:21.587Z,6.32
2023-03-21T05:41:48.099Z,5.55
2023-03-21T05:44:14.617Z,5.95
2023-03-21T05:46:41.267Z,6.10
2023-03-21T05:49:07.783Z,5.97
2023-03-21T05:51:34.418Z,6.53
2023-03-21T05:54:01.009Z,6.32
2023-03-21T05:56:27.608Z,6.18
2023-03-21T05:58:54.132Z,6.22
2023-03-21T06:01:20.735Z,5.80
2023-03-21T06:03:47.365Z,6.30
2023-03-21T06:06:13.910Z,6.68
2023-03-21T06:08:40.530Z,6.20
2023-03-21T06:11:20.611Z,6.40
2023-03-21T06:13:47.178Z,6.38
2023-03-21T06:16:13.707Z,5.70
2023-03-21T06:18:40.341Z,6.00
2023-03-21T06:21:07.036Z,6.05
2023-03-21T06:23:33.795Z,5.72
2023-03-21T06:26:00.327Z,6.07
2023-03-21T06:28:26.934Z,5.65
2023-03-21T06:30:53.464Z,5.97
2023-03-21T06:33:20.158Z,6.38
2023-03-21T06:35:54.897Z,6.22
2023-03-21T06:38:22.179Z,5.85
2023-03-21T06:40:49.157Z,6.60
2023-03-21T06:43:18.512Z,7.72
2023-03-21T06:45:45.268Z,6.90
2023-03-21T06:48:12.425Z,6.18
2023-03-21T06:50:39.015Z,6.25
2023-03-21T06:53:05.771Z,6.35
2023-03-21T06:55:32.345Z,6.60
2023-03-21T06:57:59.551Z,6.28
2023-03-21T07:00:26.417Z,6.88
2023-03-21T07:02:53.725Z,6.00
2023-03-21T07:05:20.550Z,6.40
2023-03-21T07:07:47.129Z,5.95
2023-03-21T07:10:13.723Z,5.82
2023-03-21T07:12:40.277Z,5.93
2023-03-21T07:15:09.238Z,5.88
2023-03-21T07:17:35.852Z,5.82
2023-03-21T07:20:05.128Z,6.13
2023-03-21T07:25:04.785Z,6.68
2023-03-21T07:27:32.296Z,6.25
2023-03-21T07:29:59.135Z,8.73
2023-03-21T07:32:29.758Z,6.30
2023-03-21T07:34:56.581Z,5.93
2023-03-21T07:37:23.890Z,9.02
2023-03-21T07:39:51.263Z,6.20
2023-03-21T07:42:18.068Z,5.40
2023-03-21T07:44:44.770Z,5.85
2023-03-21T07:47:11.310Z,5.72
2023-03-21T07:49:37.884Z,6.28
2023-03-21T07:52:05.434Z,6.45
2023-03-21T07:54:31.941Z,6.38
2023-03-21T07:57:26.132Z,6.35
2023-03-21T08:09:45.155Z,6.95
2023-03-21T08:12:11.979Z,7.18
2023-03-21T08:14:38.670Z,6.93
2023-03-21T08:17:06.262Z,6.70
2023-03-21T08:19:32.918Z,6.07
2023-03-21T08:21:59.818Z,6.00
2023-03-21T08:24:28.259Z,6.00
2023-03-21T08:29:42.211Z,6.68
2023-03-21T08:39:46.793Z,5.75
2023-03-21T08:45:06.090Z,5.72
2023-03-21T08:50:20.557Z,6.32
2023-03-21T08:56:03.702Z,5.82
2023-03-21T08:58:30.251Z,6.28
2023-03-21T09:01:00.270Z,6.20
2023-03-21T09:03:27.457Z,5.95
2023-03-21T09:05:54.677Z,6.25
2023-03-21T09:08:24.121Z,6.07
2023-03-21T09:10:54.774Z,6.60
2023-03-21T09:13:21.783Z,5.95
2023-03-21T09:15:48.325Z,6.35
2023-03-21T09:18:18.007Z,6.60
2023-03-21T09:20:46.549Z,5.78
2023-03-21T09:23:14.814Z,6.03
2023-03-21T09:25:56.580Z,5.87
2023-03-21T09:28:24.081Z,6.93
2023-03-21T09:30:52.038Z,6.28
2023-03-21T09:45:35.485Z,6.70
2023-03-21T09:48:15.377Z,6.10
2023-03-21T09:50:44.850Z,7.03
2023-03-21T09:59:40.129Z,5.78
2023-03-21T10:02:47.045Z,5.97
2023-03-21T10:05:20.495Z,6.32
2023-03-21T10:07:53.716Z,5.93
2023-03-21T10:10:26.403Z,6.35
2023-03-21T10:12:54.446Z,6.10
2023-03-21T10:15:23.500Z,6.43
2023-03-21T10:18:59.165Z,5.28
2023-03-21T10:35:58.187Z,5.95
2023-03-21T10:45:28.769Z,5.88
2023-03-21T10:51:33.183Z,5.55
2023-03-21T10:54:05.663Z,6.07
2023-03-21T10:56:38.401Z,6.55
2023-03-21T10:59:06.686Z,6.70
2023-03-21T11:01:39.891Z,5.90
2023-03-21T11:04:22.537Z,6.22
2023-03-21T11:07:02.832Z,6.47
2023-03-21T11:09:50.083Z,6.60
2023-03-21T11:12:32.435Z,6.70
2023-03-21T11:15:27.227Z,6.75
2023-03-21T11:17:59.563Z,7.40
2023-03-21T11:23:34.165Z,6.88
2023-03-21T11:26:11.347Z,6.88
2023-03-21T11:28:44.866Z,7.57
2023-03-21T11:37:26.644Z,6.97
2023-03-21T11:40:08.685Z,6.10
2023-03-21T11:48:45.234Z,8.45
2023-03-21T11:51:25.190Z,6.97
2023-03-21T11:53:55.771Z,6.47
2023-03-21T11:56:49.116Z,7.22
2023-03-21T11:59:27.794Z,7.72
2023-03-21T12:02:16.342Z,8.07
2023-03-21T12:05:04.451Z,7.10
2023-03-21T12:07:53.975Z,8.10
2023-03-21T12:10:33.227Z,8.82
2023-03-21T12:16:19.080Z,8.25
2023-03-21T12:19:01.882Z,7.95
2023-03-21T12:21:55.012Z,7.53
2023-03-21T12:24:40.718Z,7.88
2023-03-21T12:27:44.210Z,7.88
2023-03-21T12:30:24.786Z,6.85
2023-03-21T12:33:00.244Z,9.18
2023-03-21T12:35:46.464Z,6.97
2023-03-21T12:38:43.320Z,12.10
2023-03-21T12:41:09.824Z,7.32
2023-03-21T12:44:05.306Z,7.93
2023-03-21T12:46:48.969Z,8.20
2023-03-21T12:49:22.042Z,9.23
2023-03-21T12:51:53.490Z,8.32
2023-03-21T12:54:28.965Z,8.90
2023-03-21T12:57:04.163Z,8.63
2023-03-21T12:59:39.251Z,11.20
2023-03-21T13:02:31.241Z,10.70
2023-03-21T13:05:18.515Z,10.43
2023-03-21T13:07:51.475Z,10.35
2023-03-21T13:10:24.294Z,9.35
2023-03-21T13:13:07.407Z,9.25
2023-03-21T13:16:02.331Z,9.63
2023-03-21T13:18:57.342Z,10.77
2023-03-21T13:21:58.190Z,11.13
2023-03-21T13:24:38.632Z,10.05
2023-03-21T13:27:19.990Z,10.40
2023-03-21T13:29:50.504Z,7.82
2023-03-21T13:32:26.571Z,8.55
2023-03-21T13:35:01.009Z,8.40
2023-03-21T13:37:34.742Z,9.10
2023-03-21T13:40:12.862Z,8.70
2023-03-21T13:42:52.246Z,8.50
2023-03-21T13:45:33.130Z,8.25
2023-03-21T13:48:04.879Z,8.50
2023-03-21T13:51:00.800Z,8.73
2023-03-21T13:53:38.545Z,9.20
2023-03-21T13:56:17.272Z,9.00
2023-03-21T13:58:43.742Z,9.57
2023-03-21T14:01:41.254Z,10.30
2023-03-21T14:04:18.740Z,8.65
2023-03-21T14:06:56.860Z,9.13
2023-03-21T14:09:45.973Z,8.25
2023-03-21T14:15:06.830Z,9.23
2023-03-21T14:17:36.975Z,8.50
2023-03-21T14:20:14.443Z,7.65
2023-03-21T14:22:41.441Z,8.30
2023-03-21T14:25:15.596Z,8.82
2023-03-21T14:27:52.513Z,8.10
2023-03-21T14:30:26.483Z,8.43
2023-03-21T14:33:03.217Z,8.60
2023-03-21T14:35:32.332Z,7.53
2023-03-21T14:38:07.334Z,8.90
2023-03-21T14:40:34.494Z,8.35
2023-03-21T14:43:06.241Z,8.40
2023-03-21T14:45:36.536Z,7.43
2023-03-21T14:48:12.010Z,8.57
2023-03-21T14:50:47.974Z,9.00
2023-03-21T14:53:22.140Z,8.40
2023-03-21T14:56:01.809Z,8.55
2023-03-21T14:58:30.665Z,12.57
2023-03-21T15:01:02.942Z,15.73
2023-03-21T15:03:30.563Z,11.40
2023-03-21T15:05:58.266Z,7.85
2023-03-21T15:08:27.351Z,8.68
2023-03-21T15:11:07.714Z,7.53
2023-03-21T15:13:46.662Z,7.82
2023-03-21T15:16:16.472Z,8.00
2023-03-21T15:18:45.345Z,8.50
2023-03-21T15:21:17.032Z,9.05
2023-03-21T15:23:46.514Z,9.75
2023-03-21T15:26:18.538Z,9.07
2023-03-21T15:28:47.962Z,8.48
2023-03-21T15:31:20.029Z,8.57
2023-03-21T15:33:49.818Z,9.02
2023-03-21T15:36:27.119Z,10.02
2023-03-21T15:38:54.955Z,9.00
2023-03-21T15:41:21.401Z,8.32
2023-03-21T15:44:08.674Z,7.93
2023-03-21T15:46:46.290Z,8.27
2023-03-21T15:49:12.912Z,8.52
2023-03-21T15:51:48.870Z,7.88
2023-03-21T15:54:20.043Z,7.53
2023-03-21T15:56:46.642Z,9.52
2023-03-21T15:59:17.997Z,9.38
2023-03-21T16:01:48.827Z,8.20
2023-03-21T16:04:18.216Z,8.50
2023-03-21T16:07:15.925Z,9.23
2023-03-21T16:09:44.847Z,9.95
2023-03-21T16:12:14.024Z,9.57
2023-03-21T16:14:42.475Z,9.52
2023-03-21T16:17:32.934Z,7.70
2023-03-21T16:20:00.469Z,8.45
2023-03-21T16:22:34.751Z,8.18
2023-03-21T16:25:01.307Z,8.48
2023-03-21T16:27:27.893Z,8.23
2023-03-21T16:29:54.437Z,8.50
2023-03-21T16:32:21.090Z,9.80
2023-03-21T16:34:48.280Z,8.60
2023-03-21T16:37:15.941Z,8.88
2023-03-21T16:39:43.058Z,8.93
2023-03-21T16:42:13.695Z,8.52
2023-03-21T16:44:40.491Z,9.00
2023-03-21T16:47:19.563Z,8.07
2023-03-21T16:49:46.293Z,9.20
2023-03-21T16:52:14.413Z,9.20
2023-03-21T16:54:42.060Z,9.15
2023-03-21T16:57:27.455Z,10.00
2023-03-21T16:59:55.450Z,8.93
2023-03-21T17:02:23.452Z,9.00
2023-03-21T17:04:50.364Z,10.05
2023-03-21T17:07:17.734Z,9.65
2023-03-21T17:09:44.355Z,9.95
2023-03-21T17:12:13.617Z,9.73
2023-03-21T17:17:15.618Z,9.55
2023-03-21T17:19:42.583Z,9.82
2023-03-21T17:22:10.462Z,10.82
2023-03-21T17:24:38.850Z,10.05
2023-03-21T17:27:08.198Z,11.23
2023-03-21T17:29:34.824Z,11.57
2023-03-21T17:32:01.381Z,12.07
2023-03-21T17:34:27.860Z,11.60
2023-03-21T17:36:54.775Z,11.48
2023-03-21T17:39:24.145Z,12.35
2023-03-21T17:44:20.306Z,11.57
2023-03-21T17:46:49.582Z,11.83
2023-03-21T17:49:17.852Z,12.73
2023-03-21T17:51:46.677Z,12.10
2023-03-21T17:54:13.255Z,13.55
2023-03-21T17:56:41.561Z,12.32
2023-03-21T17:59:12.471Z,13.40
2023-03-21T18:01:39.177Z,12.95
2023-03-21T18:04:05.849Z,13.40
2023-03-21T18:06:34.210Z,13.90
2023-03-21T18:09:06.623Z,13.30
2023-03-21T18:11:33.530Z,13.45
2023-03-21T18:14:14.943Z,20.95
2023-03-21T18:16:42.790Z,15.00
2023-03-21T18:19:11.102Z,15.38
2023-03-21T18:21:40.448Z,14.90
2023-03-21T18:26:34.149Z,15.20
2023-03-21T18:29:56.995Z,15.45
2023-03-21T18:32:04.505Z,15.55
2023-03-21T18:34:32.409Z,15.35
2023-03-21T18:36:58.920Z,14.93
2023-03-21T18:39:25.729Z,15.43
2023-03-21T18:41:57.819Z,15.93
2023-03-21T18:44:25.615Z,16.30
2023-03-21T18:46:52.456Z,16.50
2023-03-21T18:52:06.633Z,17.20
2023-03-21T18:54:33.946Z,22.52
2023-03-21T18:59:47.589Z,17.45
2023-03-21T19:02:15.334Z,17.50
2023-03-21T19:04:43.227Z,17.20
2023-03-21T19:07:10.147Z,18.73
2023-03-21T19:10:13.962Z,17.73
2023-03-21T19:12:25.426Z,18.05
2023-03-21T19:14:52.033Z,17.02
2023-03-21T19:20:06.596Z,33.30
2023-03-21T19:22:33.164Z,40.72
2023-03-21T19:24:59.713Z,17.50
2023-03-21T19:27:27.005Z,19.30
2023-03-21T19:30:10.754Z,29.92
2023-03-21T19:32:40.586Z,31.00
2023-03-21T19:35:07.604Z,23.85
2023-03-21T19:37:36.210Z,18.33
2023-03-21T19:40:05.210Z,43.75
2023-03-21T19:42:32.347Z,23.77
2023-03-21T19:44:59.019Z,27.50
2023-03-21T19:47:26.154Z,20.13
2023-03-21T19:52:41.179Z,21.40
2023-03-21T19:55:08.233Z,20.73
2023-03-21T19:57:35.216Z,20.52
2023-03-21T20:00:02.306Z,20.33
2023-03-21T20:02:37.171Z,20.60
2023-03-21T20:05:06.525Z,21.98
2023-03-21T20:07:33.222Z,19.50
2023-03-21T20:10:00.111Z,21.00
2023-03-21T20:12:28.496Z,19.55
2023-03-21T20:15:07.033Z,13.10
2023-03-21T20:17:42.198Z,19.33
2023-03-21T20:20:10.080Z,18.98
2023-03-21T20:23:05.228Z,19.27
2023-03-21T20:25:23.827Z,18.90
2023-03-21T20:28:09.299Z,19.75
2023-03-21T20:30:37.220Z,18.67
2023-03-21T20:33:04.308Z,19.60
2023-03-21T20:36:17.875Z,19.73
2023-03-21T20:38:20.352Z,19.35
2023-03-21T20:40:47.870Z,20.23
2023-03-21T20:44:06.525Z,21.33
2023-03-21T20:46:03.819Z,19.38
2023-03-21T20:48:31.570Z,20.00
2023-03-21T20:51:01.834Z,23.73
2023-03-21T20:53:30.451Z,27.85
2023-03-21T20:56:02.031Z,26.48
2023-03-21T20:58:55.287Z,24.08
2023-03-21T21:01:17.136Z,16.17
2023-03-21T21:03:44.342Z,22.20
2023-03-21T21:06:13.145Z,20.90
2023-03-21T21:08:41.150Z,20.95
2023-03-21T21:12:02.411Z,20.60
2023-03-21T21:13:56.738Z,15.85
2023-03-21T21:16:23.654Z,20.80
2023-03-21T21:18:50.187Z,20.38
2023-03-21T21:21:17.564Z,20.20
2023-03-21T21:23:44.112Z,21.15
2023-03-21T21:26:11.994Z,22.33
2023-03-21T21:28:43.053Z,21.30
2023-03-21T21:31:19.730Z,22.42
2023-03-21T21:33:49.839Z,24.77
2023-03-21T21:36:16.763Z,24.95
2023-03-21T21:38:43.292Z,24.58
2023-03-21T21:41:17.480Z,26.30
2023-03-21T21:43:44.028Z,26.55
2023-03-21T21:46:12.160Z,27.02
2023-03-21T21:48:42.359Z,29.40
2023-03-21T21:51:09.497Z,30.35
2023-03-21T21:53:36.599Z,34.65
2023-03-21T21:56:04.270Z,35.60
2023-03-21T21:58:33.611Z,36.03
2023-03-21T22:01:04.261Z,38.08
2023-03-21T22:03:40.873Z,37.78
2023-03-21T22:06:09.588Z,36.97
2023-03-21T22:08:36.490Z,35.95
2023-03-21T22:11:04.410Z,37.85
2023-03-21T22:13:31.192Z,36.38
2023-03-21T22:15:57.814Z,38.78
2023-03-21T22:18:24.416Z,38.70
2023-03-21T22:20:51.115Z,39.40
2023-03-21T22:23:19.289Z,38.53
2023-03-21T22:25:51.289Z,38.83
2023-03-21T22:28:17.864Z,36.90
2023-03-21T22:30:44.415Z,37.25
2023-03-21T22:33:11.185Z,34.67
2023-03-21T22:35:37.882Z,37.25
2023-03-21T22:38:04.488Z,36.53
2023-03-21T22:40:31.071Z,36.25
2023-03-21T22:42:57.608Z,35.67
2023-03-21T22:45:24.124Z,35.45
2023-03-21T22:47:50.805Z,34.00
2023-03-21T22:50:17.451Z,34.42
2023-03-21T22:52:44.168Z,31.45
2023-03-21T22:55:12.511Z,31.73
2023-03-21T22:57:39.081Z,30.77
2023-03-21T23:00:13.058Z,31.80
2023-03-21T23:02:42.730Z,30.80
2023-03-21T23:05:10.325Z,29.60
2023-03-21T23:07:37.365Z,27.30
2023-03-21T23:10:05.228Z,28.67
2023-03-21T23:12:32.331Z,27.23
2023-03-21T23:14:58.866Z,27.75
2023-03-21T23:17:26.556Z,28.20
2023-03-21T23:19:53.054Z,29.80
2023-03-21T23:22:19.645Z,27.25
2023-03-21T23:24:46.915Z,27.92
2023-03-21T23:27:14.212Z,27.20
2023-03-21T23:29:40.833Z,28.02
2023-03-21T23:32:07.406Z,29.65
2023-03-21T23:34:33.971Z,31.60
2023-03-21T23:37:00.551Z,31.27
2023-03-21T23:39:28.132Z,31.60
2023-03-21T23:41:54.744Z,34.72
2023-03-21T23:44:21.234Z,39.10
2023-03-21T23:46:47.736Z,36.60
2023-03-21T23:49:15.192Z,38.90
2023-03-21T23:51:42.171Z,37.72
2023-03-21T23:54:09.028Z,39.65
2023-03-21T23:56:36.435Z,40.63
2023-03-21T23:59:03.762Z,41.90
